sensor_id;sensor_type;location;lat;lon;timestamp;P1;durP1;ratioP1;P2;durP2;ratioP2
15677;SDS011;7939;50.814;6.368;2022-12-29T00:01:21;0.50;;;0.50;;
15677;SDS011;7939;50.814;6.368;2022-12-29T00:03:48;0.67;;;0.67;;
15677;SDS011;7939;50.814;6.368;2022-12-29T00:06:14;0.60;;;0.60;;
15677;SDS011;7939;50.814;6.368;2022-12-29T00:08:41;0.52;;;0.52;;
15677;SDS011;7939;50.814;6.368;2022-12-29T00:11:08;0.57;;;0.57;;
15677;SDS011;7939;50.814;6.368;2022-12-29T00:13:37;0.60;;;0.60;;
15677;SDS011;7939;50.814;6.368;2022-12-29T00:16:22;0.82;;;0.60;;
15677;SDS011;7939;50.814;6.368;2022-12-29T00:18:49;0.70;;;0.70;;
15677;SDS011;7939;50.814;6.368;2022-12-29T00:21:17;0.80;;;0.80;;
15677;SDS011;7939;50.814;6.368;2022-12-29T00:24:03;0.68;;;0.68;;
15677;SDS011;7939;50.814;6.368;2022-12-29T00:26:47;0.50;;;0.50;;
15677;SDS011;7939;50.814;6.368;2022-12-29T00:29:31;0.60;;;0.60;;
15677;SDS011;7939;50.814;6.368;2022-12-29T00:32:15;0.65;;;0.65;;
15677;SDS011;7939;50.814;6.368;2022-12-29T00:34:59;0.68;;;0.68;;
15677;SDS011;7939;50.814;6.368;2022-12-29T00:37:34;0.60;;;0.60;;
15677;SDS011;7939;50.814;6.368;2022-12-29T00:40:19;0.50;;;0.50;;
15677;SDS011;7939;50.814;6.368;2022-12-29T00:42:59;0.60;;;0.60;;
15677;SDS011;7939;50.814;6.368;2022-12-29T00:45:45;0.60;;;0.60;;
15677;SDS011;7939;50.814;6.368;2022-12-29T00:48:11;0.60;;;0.60;;
15677;SDS011;7939;50.814;6.368;2022-12-29T00:50:38;0.93;;;0.60;;
15677;SDS011;7939;50.814;6.368;2022-12-29T00:53:04;0.60;;;0.60;;
15677;SDS011;7939;50.814;6.368;2022-12-29T00:55:30;0.60;;;0.60;;
15677;SDS011;7939;50.814;6.368;2022-12-29T00:57:57;0.70;;;0.70;;
15677;SDS011;7939;50.814;6.368;2022-12-29T01:00:24;1.48;;;0.80;;
15677;SDS011;7939;50.814;6.368;2022-12-29T01:02:52;0.60;;;0.60;;
15677;SDS011;7939;50.814;6.368;2022-12-29T01:05:18;0.60;;;0.60;;
15677;SDS011;7939;50.814;6.368;2022-12-29T01:07:45;1.70;;;0.70;;
15677;SDS011;7939;50.814;6.368;2022-12-29T01:10:11;0.90;;;0.77;;
15677;SDS011;7939;50.814;6.368;2022-12-29T01:12:37;1.08;;;0.63;;
15677;SDS011;7939;50.814;6.368;2022-12-29T01:15:07;0.93;;;0.75;;
15677;SDS011;7939;50.814;6.368;2022-12-29T01:17:34;1.13;;;0.80;;
15677;SDS011;7939;50.814;6.368;2022-12-29T01:20:03;2.40;;;0.68;;
15677;SDS011;7939;50.814;6.368;2022-12-29T01:22:30;1.45;;;1.35;;
15677;SDS011;7939;50.814;6.368;2022-12-29T01:24:56;0.98;;;0.93;;
15677;SDS011;7939;50.814;6.368;2022-12-29T01:27:23;0.80;;;0.80;;
15677;SDS011;7939;50.814;6.368;2022-12-29T01:29:49;1.00;;;1.00;;
15677;SDS011;7939;50.814;6.368;2022-12-29T01:32:16;0.93;;;0.80;;
15677;SDS011;7939;50.814;6.368;2022-12-29T01:34:43;0.85;;;0.85;;
15677;SDS011;7939;50.814;6.368;2022-12-29T01:37:11;1.48;;;0.77;;
15677;SDS011;7939;50.814;6.368;2022-12-29T01:39:38;1.20;;;0.90;;
15677;SDS011;7939;50.814;6.368;2022-12-29T01:42:04;1.15;;;1.08;;
15677;SDS011;7939;50.814;6.368;2022-12-29T01:44:47;1.08;;;0.98;;
15677;SDS011;7939;50.814;6.368;2022-12-29T01:47:19;0.80;;;0.80;;
15677;SDS011;7939;50.814;6.368;2022-12-29T01:49:51;1.35;;;1.17;;
15677;SDS011;7939;50.814;6.368;2022-12-29T01:52:22;0.88;;;0.88;;
15677;SDS011;7939;50.814;6.368;2022-12-29T01:54:51;1.00;;;0.90;;
15677;SDS011;7939;50.814;6.368;2022-12-29T01:57:21;2.05;;;1.13;;
15677;SDS011;7939;50.814;6.368;2022-12-29T01:59:52;1.10;;;1.00;;
15677;SDS011;7939;50.814;6.368;2022-12-29T02:02:22;2.63;;;1.00;;
15677;SDS011;7939;50.814;6.368;2022-12-29T02:04:50;1.40;;;1.30;;
15677;SDS011;7939;50.814;6.368;2022-12-29T02:07:19;1.30;;;1.20;;
15677;SDS011;7939;50.814;6.368;2022-12-29T02:09:48;1.25;;;0.90;;
15677;SDS011;7939;50.814;6.368;2022-12-29T02:12:17;0.93;;;0.90;;
15677;SDS011;7939;50.814;6.368;2022-12-29T02:14:45;1.02;;;1.02;;
15677;SDS011;7939;50.814;6.368;2022-12-29T02:17:16;0.93;;;0.90;;
15677;SDS011;7939;50.814;6.368;2022-12-29T02:20:04;1.73;;;0.90;;
15677;SDS011;7939;50.814;6.368;2022-12-29T02:23:00;0.90;;;0.90;;
15677;SDS011;7939;50.814;6.368;2022-12-29T02:25:51;1.10;;;1.00;;
15677;SDS011;7939;50.814;6.368;2022-12-29T02:28:50;1.15;;;1.10;;
15677;SDS011;7939;50.814;6.368;2022-12-29T02:31:34;0.95;;;0.80;;
15677;SDS011;7939;50.814;6.368;2022-12-29T02:34:14;1.08;;;0.85;;
15677;SDS011;7939;50.814;6.368;2022-12-29T02:36:51;0.98;;;0.98;;
15677;SDS011;7939;50.814;6.368;2022-12-29T02:39:28;1.38;;;1.08;;
15677;SDS011;7939;50.814;6.368;2022-12-29T02:42:07;0.80;;;0.80;;
15677;SDS011;7939;50.814;6.368;2022-12-29T02:44:41;1.55;;;0.68;;
15677;SDS011;7939;50.814;6.368;2022-12-29T02:47:20;0.90;;;0.90;;
15677;SDS011;7939;50.814;6.368;2022-12-29T02:49:51;0.60;;;0.60;;
15677;SDS011;7939;50.814;6.368;2022-12-29T02:52:25;1.45;;;0.70;;
15677;SDS011;7939;50.814;6.368;2022-12-29T02:54:57;1.52;;;0.80;;
15677;SDS011;7939;50.814;6.368;2022-12-29T02:57:31;0.65;;;0.60;;
15677;SDS011;7939;50.814;6.368;2022-12-29T03:00:01;0.82;;;0.70;;
15677;SDS011;7939;50.814;6.368;2022-12-29T03:02:39;0.60;;;0.60;;
15677;SDS011;7939;50.814;6.368;2022-12-29T03:05:18;1.30;;;0.80;;
15677;SDS011;7939;50.814;6.368;2022-12-29T03:07:56;0.75;;;0.75;;
15677;SDS011;7939;50.814;6.368;2022-12-29T03:10:33;0.60;;;0.60;;
15677;SDS011;7939;50.814;6.368;2022-12-29T03:13:09;0.70;;;0.70;;
15677;SDS011;7939;50.814;6.368;2022-12-29T03:16:03;0.60;;;0.60;;
15677;SDS011;7939;50.814;6.368;2022-12-29T03:18:37;0.70;;;0.70;;
15677;SDS011;7939;50.814;6.368;2022-12-29T03:21:12;1.27;;;0.77;;
15677;SDS011;7939;50.814;6.368;2022-12-29T03:23:43;1.25;;;0.70;;
15677;SDS011;7939;50.814;6.368;2022-12-29T03:26:14;0.88;;;0.88;;
15677;SDS011;7939;50.814;6.368;2022-12-29T03:28:44;0.93;;;0.90;;
15677;SDS011;7939;50.814;6.368;2022-12-29T03:31:14;0.75;;;0.75;;
15677;SDS011;7939;50.814;6.368;2022-12-29T03:33:45;0.73;;;0.73;;
15677;SDS011;7939;50.814;6.368;2022-12-29T03:36:15;1.85;;;0.90;;
15677;SDS011;7939;50.814;6.368;2022-12-29T03:38:48;0.80;;;0.80;;
15677;SDS011;7939;50.814;6.368;2022-12-29T03:41:22;0.93;;;0.93;;
15677;SDS011;7939;50.814;6.368;2022-12-29T03:43:53;0.75;;;0.75;;
15677;SDS011;7939;50.814;6.368;2022-12-29T03:46:20;2.63;;;1.33;;
15677;SDS011;7939;50.814;6.368;2022-12-29T03:48:47;1.30;;;0.75;;
15677;SDS011;7939;50.814;6.368;2022-12-29T03:51:14;2.05;;;1.00;;
15677;SDS011;7939;50.814;6.368;2022-12-29T03:53:41;1.30;;;0.90;;
15677;SDS011;7939;50.814;6.368;2022-12-29T03:56:07;1.00;;;0.85;;
15677;SDS011;7939;50.814;6.368;2022-12-29T03:58:34;0.90;;;0.90;;
15677;SDS011;7939;50.814;6.368;2022-12-29T04:01:00;0.88;;;0.82;;
15677;SDS011;7939;50.814;6.368;2022-12-29T04:03:27;1.52;;;0.77;;
15677;SDS011;7939;50.814;6.368;2022-12-29T04:05:55;0.70;;;0.70;;
15677;SDS011;7939;50.814;6.368;2022-12-29T04:08:21;0.85;;;0.68;;
15677;SDS011;7939;50.814;6.368;2022-12-29T04:10:48;0.80;;;0.80;;
15677;SDS011;7939;50.814;6.368;2022-12-29T04:13:15;1.65;;;0.80;;
15677;SDS011;7939;50.814;6.368;2022-12-29T04:15:42;0.80;;;0.80;;
15677;SDS011;7939;50.814;6.368;2022-12-29T04:18:10;1.15;;;0.95;;
15677;SDS011;7939;50.814;6.368;2022-12-29T04:20:36;0.90;;;0.90;;
15677;SDS011;7939;50.814;6.368;2022-12-29T04:23:22;0.98;;;0.93;;
15677;SDS011;7939;50.814;6.368;2022-12-29T04:25:49;0.90;;;0.90;;
15677;SDS011;7939;50.814;6.368;2022-12-29T04:28:16;0.80;;;0.80;;
15677;SDS011;7939;50.814;6.368;2022-12-29T04:30:44;0.77;;;0.77;;
15677;SDS011;7939;50.814;6.368;2022-12-29T04:33:11;1.13;;;1.00;;
15677;SDS011;7939;50.814;6.368;2022-12-29T04:35:37;0.80;;;0.80;;
15677;SDS011;7939;50.814;6.368;2022-12-29T04:38:04;1.15;;;0.93;;
15677;SDS011;7939;50.814;6.368;2022-12-29T04:40:32;2.22;;;0.90;;
15677;SDS011;7939;50.814;6.368;2022-12-29T04:42:58;2.30;;;1.00;;
15677;SDS011;7939;50.814;6.368;2022-12-29T04:45:25;0.90;;;0.90;;
15677;SDS011;7939;50.814;6.368;2022-12-29T04:47:51;1.23;;;1.13;;
15677;SDS011;7939;50.814;6.368;2022-12-29T04:50:18;0.70;;;0.70;;
15677;SDS011;7939;50.814;6.368;2022-12-29T04:52:44;1.23;;;0.80;;
15677;SDS011;7939;50.814;6.368;2022-12-29T04:55:11;1.05;;;0.90;;
15677;SDS011;7939;50.814;6.368;2022-12-29T04:57:39;5.30;;;1.67;;
15677;SDS011;7939;50.814;6.368;2022-12-29T05:00:06;3.25;;;1.20;;
15677;SDS011;7939;50.814;6.368;2022-12-29T05:02:34;0.98;;;0.80;;
15677;SDS011;7939;50.814;6.368;2022-12-29T05:05:01;0.90;;;0.90;;
15677;SDS011;7939;50.814;6.368;2022-12-29T05:07:27;1.33;;;0.90;;
15677;SDS011;7939;50.814;6.368;2022-12-29T05:09:54;2.75;;;1.20;;
15677;SDS011;7939;50.814;6.368;2022-12-29T05:12:20;0.70;;;0.70;;
15677;SDS011;7939;50.814;6.368;2022-12-29T05:14:48;1.35;;;0.95;;
15677;SDS011;7939;50.814;6.368;2022-12-29T05:17:15;1.05;;;1.05;;
15677;SDS011;7939;50.814;6.368;2022-12-29T05:19:41;2.20;;;0.80;;
15677;SDS011;7939;50.814;6.368;2022-12-29T05:22:08;3.60;;;0.80;;
15677;SDS011;7939;50.814;6.368;2022-12-29T05:24:34;1.58;;;0.73;;
15677;SDS011;7939;50.814;6.368;2022-12-29T05:27:01;1.08;;;0.90;;
15677;SDS011;7939;50.814;6.368;2022-12-29T05:29:27;0.70;;;0.70;;
15677;SDS011;7939;50.814;6.368;2022-12-29T05:31:55;1.00;;;0.80;;
15677;SDS011;7939;50.814;6.368;2022-12-29T05:34:22;0.80;;;0.80;;
15677;SDS011;7939;50.814;6.368;2022-12-29T05:36:48;1.80;;;1.05;;
15677;SDS011;7939;50.814;6.368;2022-12-29T05:39:15;1.40;;;0.75;;
15677;SDS011;7939;50.814;6.368;2022-12-29T05:41:42;3.85;;;1.10;;
15677;SDS011;7939;50.814;6.368;2022-12-29T05:44:09;3.10;;;0.90;;
15677;SDS011;7939;50.814;6.368;2022-12-29T05:46:36;2.13;;;0.90;;
15677;SDS011;7939;50.814;6.368;2022-12-29T05:49:04;2.10;;;0.80;;
15677;SDS011;7939;50.814;6.368;2022-12-29T05:51:31;0.98;;;0.80;;
15677;SDS011;7939;50.814;6.368;2022-12-29T05:53:58;3.15;;;1.00;;
15677;SDS011;7939;50.814;6.368;2022-12-29T05:56:25;1.90;;;1.00;;
15677;SDS011;7939;50.814;6.368;2022-12-29T05:58:51;1.15;;;0.90;;
15677;SDS011;7939;50.814;6.368;2022-12-29T06:01:18;1.15;;;0.75;;
15677;SDS011;7939;50.814;6.368;2022-12-29T06:03:44;0.80;;;0.63;;
15677;SDS011;7939;50.814;6.368;2022-12-29T06:06:12;0.80;;;0.80;;
15677;SDS011;7939;50.814;6.368;2022-12-29T06:08:39;1.30;;;0.90;;
15677;SDS011;7939;50.814;6.368;2022-12-29T06:11:05;0.70;;;0.70;;
15677;SDS011;7939;50.814;6.368;2022-12-29T06:13:32;2.97;;;1.10;;
15677;SDS011;7939;50.814;6.368;2022-12-29T06:15:59;2.45;;;0.90;;
15677;SDS011;7939;50.814;6.368;2022-12-29T06:18:25;1.50;;;0.70;;
15677;SDS011;7939;50.814;6.368;2022-12-29T06:20:52;1.38;;;0.80;;
15677;SDS011;7939;50.814;6.368;2022-12-29T06:23:20;0.70;;;0.70;;
15677;SDS011;7939;50.814;6.368;2022-12-29T06:25:47;1.52;;;0.80;;
15677;SDS011;7939;50.814;6.368;2022-12-29T06:28:14;3.13;;;0.70;;
15677;SDS011;7939;50.814;6.368;2022-12-29T06:30:42;2.78;;;0.70;;
15677;SDS011;7939;50.814;6.368;2022-12-29T06:33:09;0.82;;;0.82;;
15677;SDS011;7939;50.814;6.368;2022-12-29T06:35:36;0.80;;;0.77;;
15677;SDS011;7939;50.814;6.368;2022-12-29T06:38:03;1.00;;;0.90;;
15677;SDS011;7939;50.814;6.368;2022-12-29T06:40:32;1.42;;;0.90;;
15677;SDS011;7939;50.814;6.368;2022-12-29T06:42:58;0.90;;;0.70;;
15677;SDS011;7939;50.814;6.368;2022-12-29T06:45:25;1.13;;;0.70;;
15677;SDS011;7939;50.814;6.368;2022-12-29T06:47:51;1.00;;;0.98;;
15677;SDS011;7939;50.814;6.368;2022-12-29T06:50:18;0.98;;;0.88;;
15677;SDS011;7939;50.814;6.368;2022-12-29T06:52:44;1.75;;;0.90;;
15677;SDS011;7939;50.814;6.368;2022-12-29T06:55:11;1.80;;;0.82;;
15677;SDS011;7939;50.814;6.368;2022-12-29T06:57:39;0.85;;;0.85;;
15677;SDS011;7939;50.814;6.368;2022-12-29T07:00:08;1.67;;;0.70;;
15677;SDS011;7939;50.814;6.368;2022-12-29T07:02:35;1.60;;;0.90;;
15677;SDS011;7939;50.814;6.368;2022-12-29T07:05:02;1.50;;;0.90;;
15677;SDS011;7939;50.814;6.368;2022-12-29T07:07:29;2.35;;;0.93;;
15677;SDS011;7939;50.814;6.368;2022-12-29T07:09:55;1.25;;;0.90;;
15677;SDS011;7939;50.814;6.368;2022-12-29T07:12:22;2.03;;;0.90;;
15677;SDS011;7939;50.814;6.368;2022-12-29T07:14:50;4.03;;;1.55;;
15677;SDS011;7939;50.814;6.368;2022-12-29T07:17:17;3.60;;;1.00;;
15677;SDS011;7939;50.814;6.368;2022-12-29T07:19:43;1.88;;;0.90;;
15677;SDS011;7939;50.814;6.368;2022-12-29T07:22:10;2.85;;;1.05;;
15677;SDS011;7939;50.814;6.368;2022-12-29T07:24:37;3.17;;;1.08;;
15677;SDS011;7939;50.814;6.368;2022-12-29T07:27:04;3.10;;;0.98;;
15677;SDS011;7939;50.814;6.368;2022-12-29T07:29:31;2.97;;;1.60;;
15677;SDS011;7939;50.814;6.368;2022-12-29T07:31:59;3.50;;;0.95;;
15677;SDS011;7939;50.814;6.368;2022-12-29T07:34:26;2.13;;;1.13;;
15677;SDS011;7939;50.814;6.368;2022-12-29T07:36:52;1.25;;;1.10;;
15677;SDS011;7939;50.814;6.368;2022-12-29T07:39:19;3.55;;;0.85;;
15677;SDS011;7939;50.814;6.368;2022-12-29T07:41:45;3.17;;;1.23;;
15677;SDS011;7939;50.814;6.368;2022-12-29T07:44:12;3.72;;;1.10;;
15677;SDS011;7939;50.814;6.368;2022-12-29T07:46:39;3.22;;;1.20;;
15677;SDS011;7939;50.814;6.368;2022-12-29T07:49:07;3.97;;;1.00;;
15677;SDS011;7939;50.814;6.368;2022-12-29T07:51:33;3.20;;;1.02;;
15677;SDS011;7939;50.814;6.368;2022-12-29T07:54:00;1.60;;;0.98;;
15677;SDS011;7939;50.814;6.368;2022-12-29T07:56:26;3.03;;;0.90;;
15677;SDS011;7939;50.814;6.368;2022-12-29T07:58:53;1.67;;;1.10;;
15677;SDS011;7939;50.814;6.368;2022-12-29T08:01:19;2.97;;;0.90;;
15677;SDS011;7939;50.814;6.368;2022-12-29T08:03:48;3.85;;;1.10;;
15677;SDS011;7939;50.814;6.368;2022-12-29T08:06:16;2.13;;;1.10;;
15677;SDS011;7939;50.814;6.368;2022-12-29T08:08:43;2.28;;;1.33;;
15677;SDS011;7939;50.814;6.368;2022-12-29T08:11:10;2.67;;;1.08;;
15677;SDS011;7939;50.814;6.368;2022-12-29T08:13:36;4.93;;;1.52;;
15677;SDS011;7939;50.814;6.368;2022-12-29T08:16:03;3.05;;;1.23;;
15677;SDS011;7939;50.814;6.368;2022-12-29T08:18:30;1.50;;;0.95;;
15677;SDS011;7939;50.814;6.368;2022-12-29T08:21:00;4.68;;;1.23;;
15677;SDS011;7939;50.814;6.368;2022-12-29T08:23:29;3.22;;;1.10;;
15677;SDS011;7939;50.814;6.368;2022-12-29T08:25:56;3.03;;;1.42;;
15677;SDS011;7939;50.814;6.368;2022-12-29T08:28:24;2.92;;;1.42;;
15677;SDS011;7939;50.814;6.368;2022-12-29T08:30:50;1.92;;;1.15;;
15677;SDS011;7939;50.814;6.368;2022-12-29T08:33:17;4.05;;;1.23;;
15677;SDS011;7939;50.814;6.368;2022-12-29T08:35:43;7.15;;;1.20;;
15677;SDS011;7939;50.814;6.368;2022-12-29T08:38:10;1.10;;;0.95;;
15677;SDS011;7939;50.814;6.368;2022-12-29T08:40:38;3.10;;;1.35;;
15677;SDS011;7939;50.814;6.368;2022-12-29T08:43:05;2.08;;;0.90;;
15677;SDS011;7939;50.814;6.368;2022-12-29T08:45:32;4.03;;;1.17;;
15677;SDS011;7939;50.814;6.368;2022-12-29T08:47:59;2.13;;;1.23;;
15677;SDS011;7939;50.814;6.368;2022-12-29T08:50:25;2.75;;;2.15;;
15677;SDS011;7939;50.814;6.368;2022-12-29T08:52:52;4.43;;;1.38;;
15677;SDS011;7939;50.814;6.368;2022-12-29T08:55:18;1.40;;;0.95;;
15677;SDS011;7939;50.814;6.368;2022-12-29T08:57:47;4.65;;;1.20;;
15677;SDS011;7939;50.814;6.368;2022-12-29T09:00:14;3.92;;;1.40;;
15677;SDS011;7939;50.814;6.368;2022-12-29T09:02:41;3.95;;;1.25;;
15677;SDS011;7939;50.814;6.368;2022-12-29T09:05:08;3.30;;;1.13;;
15677;SDS011;7939;50.814;6.368;2022-12-29T09:07:34;3.30;;;1.17;;
15677;SDS011;7939;50.814;6.368;2022-12-29T09:10:01;1.90;;;1.00;;
15677;SDS011;7939;50.814;6.368;2022-12-29T09:12:28;3.40;;;1.48;;
15677;SDS011;7939;50.814;6.368;2022-12-29T09:14:56;4.70;;;1.38;;
15677;SDS011;7939;50.814;6.368;2022-12-29T09:17:22;3.30;;;1.50;;
15677;SDS011;7939;50.814;6.368;2022-12-29T09:20:08;2.97;;;1.60;;
15677;SDS011;7939;50.814;6.368;2022-12-29T09:22:35;2.15;;;1.23;;
15677;SDS011;7939;50.814;6.368;2022-12-29T09:25:02;5.40;;;1.20;;
15677;SDS011;7939;50.814;6.368;2022-12-29T09:27:29;2.08;;;1.13;;
15677;SDS011;7939;50.814;6.368;2022-12-29T09:29:57;2.70;;;1.13;;
15677;SDS011;7939;50.814;6.368;2022-12-29T09:32:24;3.47;;;1.20;;
15677;SDS011;7939;50.814;6.368;2022-12-29T09:34:50;5.30;;;1.25;;
15677;SDS011;7939;50.814;6.368;2022-12-29T09:37:17;5.38;;;1.92;;
15677;SDS011;7939;50.814;6.368;2022-12-29T09:39:44;4.40;;;1.42;;
15677;SDS011;7939;50.814;6.368;2022-12-29T09:42:12;3.95;;;1.23;;
15677;SDS011;7939;50.814;6.368;2022-12-29T09:44:47;4.95;;;1.48;;
15677;SDS011;7939;50.814;6.368;2022-12-29T09:47:23;3.97;;;2.05;;
15677;SDS011;7939;50.814;6.368;2022-12-29T09:49:52;3.85;;;1.10;;
15677;SDS011;7939;50.814;6.368;2022-12-29T09:52:22;2.88;;;1.45;;
15677;SDS011;7939;50.814;6.368;2022-12-29T09:54:55;3.45;;;1.58;;
15677;SDS011;7939;50.814;6.368;2022-12-29T09:57:24;1.70;;;1.20;;
15677;SDS011;7939;50.814;6.368;2022-12-29T09:59:54;2.10;;;1.40;;
15677;SDS011;7939;50.814;6.368;2022-12-29T10:02:31;5.53;;;1.33;;
15677;SDS011;7939;50.814;6.368;2022-12-29T10:04:59;3.50;;;1.30;;
15677;SDS011;7939;50.814;6.368;2022-12-29T10:07:36;5.50;;;1.70;;
15677;SDS011;7939;50.814;6.368;2022-12-29T10:10:15;7.78;;;1.38;;
15677;SDS011;7939;50.814;6.368;2022-12-29T10:12:56;4.28;;;1.40;;
15677;SDS011;7939;50.814;6.368;2022-12-29T10:15:40;4.72;;;1.27;;
15677;SDS011;7939;50.814;6.368;2022-12-29T10:18:20;6.25;;;1.20;;
15677;SDS011;7939;50.814;6.368;2022-12-29T10:20:59;4.28;;;1.08;;
15677;SDS011;7939;50.814;6.368;2022-12-29T10:23:33;3.55;;;1.58;;
15677;SDS011;7939;50.814;6.368;2022-12-29T10:26:04;7.68;;;1.52;;
15677;SDS011;7939;50.814;6.368;2022-12-29T10:28:40;6.75;;;1.48;;
15677;SDS011;7939;50.814;6.368;2022-12-29T10:31:10;4.25;;;1.35;;
15677;SDS011;7939;50.814;6.368;2022-12-29T10:33:42;3.65;;;1.55;;
15677;SDS011;7939;50.814;6.368;2022-12-29T10:36:14;3.35;;;1.38;;
15677;SDS011;7939;50.814;6.368;2022-12-29T10:38:45;3.47;;;1.05;;
15677;SDS011;7939;50.814;6.368;2022-12-29T10:41:18;7.68;;;1.65;;
15677;SDS011;7939;50.814;6.368;2022-12-29T10:43:51;3.03;;;1.45;;
15677;SDS011;7939;50.814;6.368;2022-12-29T10:46:20;4.30;;;1.42;;
15677;SDS011;7939;50.814;6.368;2022-12-29T10:48:51;3.47;;;1.10;;
15677;SDS011;7939;50.814;6.368;2022-12-29T10:51:19;6.95;;;1.60;;
15677;SDS011;7939;50.814;6.368;2022-12-29T10:53:49;3.85;;;1.35;;
15677;SDS011;7939;50.814;6.368;2022-12-29T10:56:22;4.03;;;1.25;;
15677;SDS011;7939;50.814;6.368;2022-12-29T10:58:56;5.72;;;1.48;;
15677;SDS011;7939;50.814;6.368;2022-12-29T11:01:27;4.28;;;1.38;;
15677;SDS011;7939;50.814;6.368;2022-12-29T11:04:04;5.15;;;1.60;;
15677;SDS011;7939;50.814;6.368;2022-12-29T11:06:47;5.05;;;1.67;;
15677;SDS011;7939;50.814;6.368;2022-12-29T11:09:16;6.47;;;1.55;;
15677;SDS011;7939;50.814;6.368;2022-12-29T11:11:47;4.10;;;1.58;;
15677;SDS011;7939;50.814;6.368;2022-12-29T11:14:14;7.43;;;1.77;;
15677;SDS011;7939;50.814;6.368;2022-12-29T11:16:45;5.53;;;1.40;;
15677;SDS011;7939;50.814;6.368;2022-12-29T11:19:25;2.65;;;1.17;;
15677;SDS011;7939;50.814;6.368;2022-12-29T11:21:54;2.67;;;1.10;;
15677;SDS011;7939;50.814;6.368;2022-12-29T11:24:22;2.22;;;1.40;;
15677;SDS011;7939;50.814;6.368;2022-12-29T11:26:51;3.80;;;1.30;;
15677;SDS011;7939;50.814;6.368;2022-12-29T11:29:26;3.67;;;1.15;;
15677;SDS011;7939;50.814;6.368;2022-12-29T11:31:54;5.18;;;1.50;;
15677;SDS011;7939;50.814;6.368;2022-12-29T11:34:26;2.63;;;1.25;;
15677;SDS011;7939;50.814;6.368;2022-12-29T11:36:58;2.60;;;1.00;;
15677;SDS011;7939;50.814;6.368;2022-12-29T11:39:29;7.13;;;1.60;;
15677;SDS011;7939;50.814;6.368;2022-12-29T11:41:59;5.15;;;1.33;;
15677;SDS011;7939;50.814;6.368;2022-12-29T11:44:27;7.60;;;1.60;;
15677;SDS011;7939;50.814;6.368;2022-12-29T11:47:01;2.97;;;1.42;;
15677;SDS011;7939;50.814;6.368;2022-12-29T11:49:29;3.90;;;1.23;;
15677;SDS011;7939;50.814;6.368;2022-12-29T11:51:56;7.18;;;1.70;;
15677;SDS011;7939;50.814;6.368;2022-12-29T11:54:23;4.40;;;1.80;;
15677;SDS011;7939;50.814;6.368;2022-12-29T11:56:52;5.50;;;1.45;;
15677;SDS011;7939;50.814;6.368;2022-12-29T11:59:34;4.28;;;1.90;;
15677;SDS011;7939;50.814;6.368;2022-12-29T12:02:13;2.40;;;1.33;;
15677;SDS011;7939;50.814;6.368;2022-12-29T12:04:50;2.08;;;1.02;;
15677;SDS011;7939;50.814;6.368;2022-12-29T12:07:20;6.40;;;1.67;;
15677;SDS011;7939;50.814;6.368;2022-12-29T12:09:54;5.63;;;1.30;;
15677;SDS011;7939;50.814;6.368;2022-12-29T12:12:24;5.80;;;1.40;;
15677;SDS011;7939;50.814;6.368;2022-12-29T12:14:58;4.15;;;1.40;;
15677;SDS011;7939;50.814;6.368;2022-12-29T12:17:26;5.97;;;1.25;;
15677;SDS011;7939;50.814;6.368;2022-12-29T12:20:05;5.63;;;1.38;;
15677;SDS011;7939;50.814;6.368;2022-12-29T12:22:44;7.72;;;2.13;;
15677;SDS011;7939;50.814;6.368;2022-12-29T12:25:17;3.30;;;1.33;;
15677;SDS011;7939;50.814;6.368;2022-12-29T12:27:48;4.97;;;2.08;;
15677;SDS011;7939;50.814;6.368;2022-12-29T12:30:20;3.03;;;1.27;;
15677;SDS011;7939;50.814;6.368;2022-12-29T12:32:48;5.90;;;1.73;;
15677;SDS011;7939;50.814;6.368;2022-12-29T12:35:21;6.88;;;1.58;;
15677;SDS011;7939;50.814;6.368;2022-12-29T12:38:04;6.55;;;1.67;;
15677;SDS011;7939;50.814;6.368;2022-12-29T12:40:53;3.42;;;1.13;;
15677;SDS011;7939;50.814;6.368;2022-12-29T12:43:40;3.53;;;1.30;;
15677;SDS011;7939;50.814;6.368;2022-12-29T12:46:33;3.20;;;1.10;;
15677;SDS011;7939;50.814;6.368;2022-12-29T12:49:17;5.22;;;1.55;;
15677;SDS011;7939;50.814;6.368;2022-12-29T12:52:05;4.47;;;1.50;;
15677;SDS011;7939;50.814;6.368;2022-12-29T12:54:46;4.68;;;1.38;;
15677;SDS011;7939;50.814;6.368;2022-12-29T12:57:32;4.75;;;1.40;;
15677;SDS011;7939;50.814;6.368;2022-12-29T13:00:12;3.95;;;1.20;;
15677;SDS011;7939;50.814;6.368;2022-12-29T13:02:46;6.57;;;1.75;;
15677;SDS011;7939;50.814;6.368;2022-12-29T13:05:28;6.55;;;1.40;;
15677;SDS011;7939;50.814;6.368;2022-12-29T13:11:02;4.07;;;1.20;;
15677;SDS011;7939;50.814;6.368;2022-12-29T13:13:44;4.97;;;1.67;;
15677;SDS011;7939;50.814;6.368;2022-12-29T13:16:27;4.18;;;1.50;;
15677;SDS011;7939;50.814;6.368;2022-12-29T13:19:02;2.60;;;1.40;;
15677;SDS011;7939;50.814;6.368;2022-12-29T13:21:40;4.15;;;1.52;;
15677;SDS011;7939;50.814;6.368;2022-12-29T13:24:23;5.28;;;1.30;;
15677;SDS011;7939;50.814;6.368;2022-12-29T13:26:59;5.90;;;1.65;;
15677;SDS011;7939;50.814;6.368;2022-12-29T13:29:30;2.90;;;1.55;;
15677;SDS011;7939;50.814;6.368;2022-12-29T13:32:07;2.60;;;0.90;;
15677;SDS011;7939;50.814;6.368;2022-12-29T13:34:49;4.03;;;1.30;;
15677;SDS011;7939;50.814;6.368;2022-12-29T13:37:26;3.38;;;1.25;;
15677;SDS011;7939;50.814;6.368;2022-12-29T13:39:59;3.45;;;1.25;;
15677;SDS011;7939;50.814;6.368;2022-12-29T13:42:28;5.70;;;1.88;;
15677;SDS011;7939;50.814;6.368;2022-12-29T13:44:57;6.13;;;1.23;;
15677;SDS011;7939;50.814;6.368;2022-12-29T13:47:29;5.70;;;1.27;;
15677;SDS011;7939;50.814;6.368;2022-12-29T13:50:01;2.78;;;1.20;;
15677;SDS011;7939;50.814;6.368;2022-12-29T13:52:32;3.75;;;1.20;;
15677;SDS011;7939;50.814;6.368;2022-12-29T13:55:17;3.35;;;1.20;;
15677;SDS011;7939;50.814;6.368;2022-12-29T13:57:51;2.22;;;1.55;;
15677;SDS011;7939;50.814;6.368;2022-12-29T14:00:26;5.50;;;1.20;;
15677;SDS011;7939;50.814;6.368;2022-12-29T14:03:08;2.20;;;1.38;;
15677;SDS011;7939;50.814;6.368;2022-12-29T14:05:47;4.97;;;1.45;;
15677;SDS011;7939;50.814;6.368;2022-12-29T14:08:31;2.40;;;1.05;;
15677;SDS011;7939;50.814;6.368;2022-12-29T14:11:05;2.17;;;1.20;;
15677;SDS011;7939;50.814;6.368;2022-12-29T14:13:36;5.07;;;1.38;;
15677;SDS011;7939;50.814;6.368;2022-12-29T14:16:05;4.80;;;1.50;;
15677;SDS011;7939;50.814;6.368;2022-12-29T14:18:33;3.42;;;1.30;;
15677;SDS011;7939;50.814;6.368;2022-12-29T14:21:08;3.03;;;1.35;;
15677;SDS011;7939;50.814;6.368;2022-12-29T14:23:44;2.08;;;1.40;;
15677;SDS011;7939;50.814;6.368;2022-12-29T14:26:15;3.22;;;1.40;;
15677;SDS011;7939;50.814;6.368;2022-12-29T14:28:44;5.47;;;1.40;;
15677;SDS011;7939;50.814;6.368;2022-12-29T14:34:26;5.53;;;1.60;;
15677;SDS011;7939;50.814;6.368;2022-12-29T14:36:55;3.95;;;1.38;;
15677;SDS011;7939;50.814;6.368;2022-12-29T14:39:27;2.63;;;1.20;;
15677;SDS011;7939;50.814;6.368;2022-12-29T14:42:01;4.80;;;1.30;;
15677;SDS011;7939;50.814;6.368;2022-12-29T14:44:31;2.75;;;0.98;;
15677;SDS011;7939;50.814;6.368;2022-12-29T14:46:58;3.67;;;1.38;;
15677;SDS011;7939;50.814;6.368;2022-12-29T14:49:30;3.15;;;1.20;;
15677;SDS011;7939;50.814;6.368;2022-12-29T14:52:07;4.55;;;1.30;;
15677;SDS011;7939;50.814;6.368;2022-12-29T14:54:45;4.18;;;1.48;;
15677;SDS011;7939;50.814;6.368;2022-12-29T14:57:20;3.60;;;1.38;;
15677;SDS011;7939;50.814;6.368;2022-12-29T14:59:52;7.93;;;1.65;;
15677;SDS011;7939;50.814;6.368;2022-12-29T15:02:22;7.70;;;1.60;;
15677;SDS011;7939;50.814;6.368;2022-12-29T15:04:51;5.65;;;1.30;;
15677;SDS011;7939;50.814;6.368;2022-12-29T15:07:20;5.30;;;1.58;;
15677;SDS011;7939;50.814;6.368;2022-12-29T15:09:51;4.90;;;1.80;;
15677;SDS011;7939;50.814;6.368;2022-12-29T15:12:30;5.60;;;1.30;;
15677;SDS011;7939;50.814;6.368;2022-12-29T15:15:10;6.07;;;1.35;;
15677;SDS011;7939;50.814;6.368;2022-12-29T15:17:43;4.97;;;1.70;;
15677;SDS011;7939;50.814;6.368;2022-12-29T15:20:14;5.75;;;1.50;;
15677;SDS011;7939;50.814;6.368;2022-12-29T15:22:47;3.60;;;1.60;;
15677;SDS011;7939;50.814;6.368;2022-12-29T15:25:16;7.93;;;2.00;;
15677;SDS011;7939;50.814;6.368;2022-12-29T15:27:49;9.15;;;2.47;;
15677;SDS011;7939;50.814;6.368;2022-12-29T15:30:17;6.57;;;1.58;;